createdAt,value
2022-12-09T00:02:23.572Z,53.95
2022-12-09T00:05:45.978Z,50.42
2022-12-09T00:09:15.370Z,50.15
2022-12-09T00:12:37.428Z,52.53
2022-12-09T00:15:59.967Z,45.70
2022-12-09T00:19:22.265Z,46.20
2022-12-09T00:22:44.507Z,43.03
2022-12-09T00:26:06.897Z,39.95
2022-12-09T00:29:29.169Z,34.20
2022-12-09T00:32:51.285Z,28.70
2022-12-09T00:36:19.775Z,19.23
2022-12-09T00:39:41.782Z,16.67
2022-12-09T00:43:03.812Z,15.00
2022-12-09T00:46:26.187Z,13.98
2022-12-09T00:49:48.233Z,11.27
2022-12-09T00:53:10.338Z,11.52
2022-12-09T00:56:32.731Z,10.52
2022-12-09T00:59:55.872Z,11.07
2022-12-09T01:03:20.298Z,18.35
2022-12-09T01:06:42.772Z,17.50
2022-12-09T01:10:06.469Z,31.55
2022-12-09T01:13:30.595Z,38.33
2022-12-09T01:16:53.121Z,35.63
2022-12-09T01:20:15.582Z,37.42
2022-12-09T01:23:37.894Z,28.48
2022-12-09T01:27:00.235Z,36.13
2022-12-09T01:30:22.597Z,33.10
2022-12-09T01:33:46.357Z,21.02
2022-12-09T01:37:08.683Z,17.55
2022-12-09T01:40:31.014Z,19.95
2022-12-09T01:44:09.830Z,18.70
2022-12-09T01:47:32.163Z,27.02
2022-12-09T01:50:58.332Z,21.05
2022-12-09T01:54:20.547Z,16.90
2022-12-09T01:57:45.209Z,16.40
2022-12-09T02:01:07.786Z,17.63
2022-12-09T02:04:34.484Z,15.63
2022-12-09T02:07:57.912Z,18.50
2022-12-09T02:11:38.825Z,18.77
2022-12-09T02:15:07.645Z,11.25
2022-12-09T02:18:44.538Z,17.87
2022-12-09T02:22:08.548Z,12.60
2022-12-09T02:25:41.390Z,9.82
2022-12-09T02:29:22.535Z,11.52
2022-12-09T02:33:22.882Z,10.15
2022-12-09T02:37:08.781Z,11.32
2022-12-09T02:40:36.286Z,8.48
2022-12-09T02:44:08.305Z,13.20
2022-12-09T02:47:36.833Z,11.10
2022-12-09T02:51:03.211Z,9.32
2022-12-09T02:54:30.193Z,9.93
2022-12-09T02:57:56.952Z,14.20
2022-12-09T03:01:30.283Z,11.13
2022-12-09T03:05:16.974Z,9.68
2022-12-09T03:08:53.068Z,15.85
2022-12-09T03:12:20.188Z,14.98
2022-12-09T03:15:47.562Z,12.88
2022-12-09T03:19:36.341Z,10.05
2022-12-09T03:23:03.546Z,11.25
2022-12-09T03:26:29.414Z,13.25
2022-12-09T03:29:52.321Z,12.80
2022-12-09T03:33:18.801Z,15.25
2022-12-09T03:36:43.172Z,13.85
2022-12-09T03:40:13.606Z,14.57
2022-12-09T03:43:41.352Z,13.93
2022-12-09T03:47:05.506Z,15.45
2022-12-09T03:50:32.222Z,13.55
2022-12-09T03:53:59.397Z,13.07
2022-12-09T03:57:22.707Z,12.98
2022-12-09T04:00:46.294Z,26.13
2022-12-09T04:04:09.237Z,17.67
2022-12-09T04:07:31.568Z,17.60
2022-12-09T04:10:54.019Z,12.07
2022-12-09T04:14:16.613Z,15.93
2022-12-09T04:17:38.832Z,20.15
2022-12-09T04:21:04.416Z,20.60
2022-12-09T04:24:26.799Z,15.00
2022-12-09T04:27:49.194Z,17.13
2022-12-09T04:31:14.566Z,16.92
2022-12-09T04:34:37.139Z,23.13
2022-12-09T04:37:59.493Z,19.58
2022-12-09T04:41:21.523Z,17.20
2022-12-09T04:44:44.525Z,18.75
2022-12-09T04:48:06.854Z,18.60
2022-12-09T04:51:37.328Z,22.20
2022-12-09T04:55:01.364Z,20.00
2022-12-09T04:58:23.640Z,15.68
2022-12-09T05:01:45.835Z,17.85
2022-12-09T05:05:08.828Z,18.95
2022-12-09T05:08:32.077Z,19.50
2022-12-09T05:11:57.489Z,21.90
2022-12-09T05:15:19.631Z,17.63
2022-12-09T05:18:42.058Z,18.52
2022-12-09T05:22:04.719Z,18.83
2022-12-09T05:25:27.096Z,20.15
2022-12-09T05:28:50.488Z,26.55
2022-12-09T05:32:13.167Z,23.48
2022-12-09T05:35:42.625Z,22.95
2022-12-09T05:39:11.147Z,21.67
2022-12-09T05:42:37.961Z,18.10
2022-12-09T05:46:04.928Z,20.55
2022-12-09T05:49:27.134Z,23.33
2022-12-09T05:52:50.036Z,22.60
2022-12-09T05:56:16.204Z,21.83
2022-12-09T05:59:38.296Z,23.75
2022-12-09T06:03:00.457Z,26.83
2022-12-09T06:06:26.786Z,25.20
2022-12-09T06:09:49.623Z,17.73
2022-12-09T06:13:11.746Z,25.80
2022-12-09T06:16:34.137Z,24.95
2022-12-09T06:19:56.480Z,22.17
2022-12-09T06:23:18.910Z,22.27
2022-12-09T06:26:41.179Z,25.70
2022-12-09T06:30:03.517Z,27.90
2022-12-09T06:33:52.932Z,25.00
2022-12-09T06:37:08.068Z,24.02
2022-12-09T06:40:30.189Z,27.88
2022-12-09T06:43:52.195Z,22.50
2022-12-09T06:47:14.757Z,25.98
2022-12-09T06:50:39.133Z,32.25
2022-12-09T06:54:01.620Z,30.00
2022-12-09T06:57:23.991Z,31.27
2022-12-09T07:00:46.665Z,35.58
2022-12-09T07:04:12.363Z,36.90
2022-12-09T07:07:34.631Z,29.05
2022-12-09T07:10:57.236Z,37.90
2022-12-09T07:14:20.101Z,36.22
2022-12-09T07:17:42.412Z,31.35
2022-12-09T07:21:10.084Z,33.17
2022-12-09T07:24:32.785Z,35.50
2022-12-09T07:27:55.233Z,29.70
2022-12-09T07:31:19.304Z,29.90
2022-12-09T07:34:43.065Z,30.92
2022-12-09T07:38:05.680Z,28.25
2022-12-09T07:41:28.235Z,33.97
2022-12-09T07:44:51.001Z,28.70
2022-12-09T07:48:13.509Z,28.73
2022-12-09T07:51:36.287Z,31.10
2022-12-09T07:55:01.533Z,28.35
2022-12-09T07:58:23.967Z,27.80
2022-12-09T08:01:46.702Z,33.20
2022-12-09T08:05:09.296Z,28.45
2022-12-09T08:08:33.823Z,27.48
2022-12-09T08:11:57.608Z,31.73
2022-12-09T08:15:20.842Z,36.70
2022-12-09T08:18:43.962Z,33.83
2022-12-09T08:22:06.885Z,35.85
2022-12-09T08:25:29.495Z,32.47
2022-12-09T08:28:51.879Z,29.75
2022-12-09T08:32:17.932Z,28.95
2022-12-09T08:35:43.262Z,28.73
2022-12-09T08:39:06.294Z,24.83
2022-12-09T08:42:30.557Z,25.33
2022-12-09T08:45:56.268Z,25.98
2022-12-09T08:49:22.664Z,27.17
2022-12-09T08:52:48.471Z,21.88
2022-12-09T08:56:13.827Z,22.77
2022-12-09T08:59:41.844Z,16.65
2022-12-09T09:03:07.027Z,17.02
2022-12-09T09:06:30.312Z,15.88
2022-12-09T09:09:52.986Z,14.15
2022-12-09T09:13:15.090Z,8.65
2022-12-09T09:16:40.647Z,6.90
2022-12-09T09:20:03.193Z,5.50
2022-12-09T09:23:26.251Z,5.93
2022-12-09T09:26:50.107Z,7.10
2022-12-09T09:30:13.112Z,10.20
2022-12-09T09:33:36.364Z,4.13
2022-12-09T09:36:58.698Z,5.63
2022-12-09T09:40:22.475Z,7.97
2022-12-09T09:43:45.227Z,5.15
2022-12-09T09:47:38.084Z,5.15
2022-12-09T09:51:31.803Z,4.88
2022-12-09T09:54:54.146Z,6.88
2022-12-09T09:58:27.034Z,7.22
2022-12-09T10:02:02.370Z,6.43
2022-12-09T10:05:34.743Z,6.38
2022-12-09T10:09:13.537Z,6.13
2022-12-09T10:12:59.001Z,8.23
2022-12-09T10:16:50.621Z,5.15
2022-12-09T10:20:33.145Z,3.70
2022-12-09T10:23:56.471Z,3.67
2022-12-09T10:27:59.073Z,2.78
2022-12-09T10:31:21.304Z,3.92
2022-12-09T10:34:46.732Z,4.45
2022-12-09T10:38:11.972Z,9.05
2022-12-09T10:42:07.137Z,4.57
2022-12-09T10:45:52.703Z,5.50
2022-12-09T10:49:22.194Z,7.88
2022-12-09T10:52:46.086Z,7.55
2022-12-09T10:56:09.230Z,10.07
2022-12-09T10:59:32.178Z,23.42
2022-12-09T11:02:56.057Z,8.68
2022-12-09T11:06:37.268Z,4.05
2022-12-09T11:10:00.741Z,5.47
2022-12-09T11:13:33.712Z,12.25
2022-12-09T11:17:17.948Z,3.67
2022-12-09T11:20:40.932Z,4.90
2022-12-09T11:24:04.867Z,4.45
2022-12-09T11:27:34.083Z,3.95
2022-12-09T11:31:35.369Z,9.75
2022-12-09T11:34:57.780Z,7.25
2022-12-09T11:38:28.634Z,10.73
2022-12-09T11:42:19.819Z,7.00
2022-12-09T11:45:46.165Z,9.02
2022-12-09T11:49:16.851Z,6.55
2022-12-09T11:52:38.828Z,8.15
2022-12-09T11:56:01.208Z,8.40
2022-12-09T11:59:34.778Z,7.53
2022-12-09T12:03:12.627Z,6.93
2022-12-09T12:06:49.451Z,7.68
2022-12-09T12:10:27.083Z,7.10
2022-12-09T12:13:58.234Z,9.35
2022-12-09T12:17:27.067Z,6.72
2022-12-09T12:21:07.826Z,8.13
2022-12-09T12:24:32.899Z,6.63
2022-12-09T12:27:57.563Z,9.00
2022-12-09T12:31:43.963Z,8.02
2022-12-09T12:35:16.152Z,5.85
2022-12-09T12:38:40.881Z,6.57
2022-12-09T12:42:24.252Z,5.05
2022-12-09T12:46:17.227Z,8.20
2022-12-09T12:50:12.825Z,6.32
2022-12-09T12:53:34.712Z,9.52
2022-12-09T12:57:31.856Z,5.13
2022-12-09T13:01:09.954Z,5.70
2022-12-09T13:04:37.570Z,6.60
2022-12-09T13:08:07.696Z,8.10
2022-12-09T13:15:18.608Z,9.05
2022-12-09T13:18:41.533Z,9.00
2022-12-09T13:22:04.528Z,7.38
2022-12-09T13:25:37.054Z,6.40
2022-12-09T13:29:13.294Z,4.47
2022-12-09T13:32:44.576Z,7.05
2022-12-09T13:36:16.541Z,6.55
2022-12-09T13:39:41.627Z,7.25
2022-12-09T13:43:03.561Z,6.57
2022-12-09T13:46:27.506Z,6.10
2022-12-09T13:50:26.438Z,5.53
2022-12-09T13:54:15.186Z,5.68
2022-12-09T13:57:52.032Z,8.48
2022-12-09T14:01:25.739Z,8.02
2022-12-09T14:05:05.903Z,8.20
2022-12-09T14:08:36.959Z,7.28
2022-12-09T14:12:01.601Z,15.27
2022-12-09T14:15:23.483Z,6.85
2022-12-09T14:18:45.624Z,9.05
2022-12-09T14:22:20.143Z,6.28
2022-12-09T14:25:55.498Z,8.75
2022-12-09T14:29:54.577Z,9.13
2022-12-09T14:33:39.193Z,9.70
2022-12-09T14:37:42.393Z,9.98
2022-12-09T14:41:13.370Z,17.02
2022-12-09T14:44:35.268Z,9.82
2022-12-09T14:47:57.767Z,7.93
2022-12-09T14:51:27.064Z,5.97
2022-12-09T14:54:49.817Z,8.27
2022-12-09T14:58:20.161Z,4.40
2022-12-09T15:01:56.291Z,5.60
2022-12-09T15:05:18.817Z,7.35
2022-12-09T15:08:42.850Z,5.15
2022-12-09T15:12:10.517Z,4.70
2022-12-09T15:15:39.329Z,7.00
2022-12-09T15:19:01.345Z,3.00
2022-12-09T15:22:33.283Z,4.47
2022-12-09T15:25:58.394Z,7.68
2022-12-09T15:29:21.866Z,9.85
2022-12-09T15:32:45.141Z,8.35
2022-12-09T15:36:32.682Z,5.55
2022-12-09T15:40:02.458Z,4.85
2022-12-09T15:43:24.457Z,5.00
2022-12-09T15:46:50.576Z,6.88
2022-12-09T15:50:21.565Z,6.65
2022-12-09T15:54:02.759Z,9.27
2022-12-09T15:57:27.635Z,5.95
2022-12-09T16:00:51.830Z,7.32
2022-12-09T16:04:19.412Z,7.90
2022-12-09T16:07:56.823Z,10.00
2022-12-09T16:11:41.732Z,11.90
2022-12-09T16:15:06.964Z,8.90
2022-12-09T16:18:49.920Z,7.50
2022-12-09T16:22:14.974Z,27.48
2022-12-09T16:25:45.656Z,12.60
2022-12-09T16:29:26.587Z,25.70
2022-12-09T16:32:55.381Z,9.75
2022-12-09T16:36:25.560Z,10.07
2022-12-09T16:39:48.167Z,5.28
2022-12-09T16:43:16.483Z,6.13
2022-12-09T16:46:40.329Z,6.78
2022-12-09T16:50:02.350Z,4.40
2022-12-09T16:53:49.919Z,4.65
2022-12-09T16:57:13.809Z,4.70
2022-12-09T17:00:35.868Z,2.53
2022-12-09T17:04:21.752Z,3.38
2022-12-09T17:07:43.897Z,5.85
2022-12-09T17:11:06.173Z,4.18
2022-12-09T17:14:29.016Z,3.80
2022-12-09T17:17:51.564Z,3.85
2022-12-09T17:21:14.815Z,5.07
2022-12-09T17:24:37.278Z,5.63
2022-12-09T17:28:07.488Z,4.68
2022-12-09T17:31:30.015Z,5.47
2022-12-09T17:34:54.803Z,6.63
2022-12-09T17:38:17.463Z,8.65
2022-12-09T17:41:40.478Z,5.30
2022-12-09T17:45:03.524Z,8.00
2022-12-09T17:48:25.690Z,10.45
2022-12-09T17:51:48.275Z,9.60
2022-12-09T17:55:11.723Z,42.25
2022-12-09T17:58:34.249Z,10.00
2022-12-09T18:01:56.846Z,5.85
2022-12-09T18:05:19.170Z,5.95
2022-12-09T18:08:41.755Z,4.13
2022-12-09T18:12:04.299Z,5.15
2022-12-09T18:15:27.451Z,7.40
2022-12-09T18:18:50.325Z,5.28
2022-12-09T18:22:12.254Z,6.70
2022-12-09T18:25:34.488Z,6.25
2022-12-09T18:28:57.661Z,6.78
2022-12-09T18:32:20.119Z,8.30
2022-12-09T18:35:42.404Z,5.25
2022-12-09T18:39:05.561Z,4.22
2022-12-09T18:42:27.885Z,9.73
2022-12-09T18:45:53.117Z,11.25
2022-12-09T18:49:19.208Z,9.23
2022-12-09T18:52:43.506Z,5.70
2022-12-09T18:56:06.668Z,9.05
2022-12-09T18:59:32.010Z,9.80
2022-12-09T19:02:54.680Z,14.60
2022-12-09T19:06:38.158Z,8.07
2022-12-09T19:10:00.516Z,12.45
2022-12-09T19:13:23.060Z,13.20
2022-12-09T19:16:47.779Z,14.18
2022-12-09T19:20:11.051Z,19.10
2022-12-09T19:23:36.801Z,14.88
2022-12-09T19:26:59.471Z,21.52
2022-12-09T19:30:21.588Z,32.13
2022-12-09T19:33:44.133Z,26.13
2022-12-09T19:37:07.666Z,23.63
2022-12-09T19:40:38.611Z,29.42
2022-12-09T19:44:02.400Z,30.17
2022-12-09T19:47:27.361Z,29.85
2022-12-09T19:50:50.613Z,34.30
2022-12-09T19:54:16.670Z,35.80
2022-12-09T19:57:39.103Z,33.10
2022-12-09T20:01:12.299Z,32.30
2022-12-09T20:04:51.117Z,32.45
2022-12-09T20:08:13.957Z,36.90
2022-12-09T20:11:36.718Z,36.20
2022-12-09T20:14:59.075Z,33.20
2022-12-09T20:18:21.847Z,42.25
2022-12-09T20:21:44.334Z,42.85
2022-12-09T20:25:07.345Z,47.47
2022-12-09T20:28:31.036Z,45.58
2022-12-09T20:31:53.623Z,47.20
2022-12-09T20:35:16.138Z,46.92
2022-12-09T20:38:39.742Z,42.83
2022-12-09T20:42:01.955Z,44.90
2022-12-09T20:45:23.989Z,56.95
2022-12-09T20:48:47.068Z,56.97
2022-12-09T20:52:09.087Z,49.80
2022-12-09T20:55:31.444Z,60.50
2022-12-09T20:58:54.545Z,49.40
2022-12-09T21:02:18.031Z,53.38
2022-12-09T21:05:42.117Z,49.22
2022-12-09T21:09:08.286Z,44.67
2022-12-09T21:12:30.845Z,51.38
2022-12-09T21:15:54.871Z,53.92
2022-12-09T21:19:20.404Z,45.97
2022-12-09T21:22:42.569Z,47.47
2022-12-09T21:26:09.058Z,51.67
2022-12-09T21:29:32.446Z,49.53
2022-12-09T21:32:55.607Z,54.72
2022-12-09T21:36:20.204Z,53.00
2022-12-09T21:39:43.187Z,46.75
2022-12-09T21:43:05.393Z,45.72
2022-12-09T21:46:31.927Z,41.65
2022-12-09T21:49:54.288Z,48.65
2022-12-09T21:53:17.560Z,49.92
2022-12-09T21:56:39.652Z,43.22
2022-12-09T22:00:04.549Z,43.08
2022-12-09T22:03:27.345Z,43.03
2022-12-09T22:06:50.482Z,47.90
2022-12-09T22:10:12.456Z,44.38
2022-12-09T22:13:39.102Z,41.97
2022-12-09T22:17:02.511Z,41.00
2022-12-09T22:24:07.802Z,41.53
2022-12-09T22:27:29.769Z,39.63
2022-12-09T22:30:51.775Z,50.25
2022-12-09T22:34:17.285Z,48.83
2022-12-09T22:37:43.770Z,45.92
2022-12-09T22:41:09.238Z,49.42
2022-12-09T22:44:32.438Z,48.10
2022-12-09T22:47:55.340Z,48.97
2022-12-09T22:51:22.972Z,43.38
2022-12-09T22:54:45.103Z,55.22
2022-12-09T22:58:07.090Z,48.35
2022-12-09T23:01:32.073Z,44.20
2022-12-09T23:04:54.160Z,39.92
2022-12-09T23:08:16.656Z,48.22
2022-12-09T23:11:38.643Z,48.85
2022-12-09T23:15:00.818Z,55.40
2022-12-09T23:18:22.805Z,50.50
2022-12-09T23:21:44.817Z,46.50
2022-12-09T23:25:07.257Z,50.03
2022-12-09T23:28:29.422Z,44.08
2022-12-09T23:31:51.440Z,54.63
2022-12-09T23:35:13.430Z,45.35
2022-12-09T23:38:35.933Z,43.20
2022-12-09T23:41:57.919Z,56.58
2022-12-09T23:45:19.904Z,49.47
2022-12-09T23:48:41.992Z,45.22
2022-12-09T23:52:04.262Z,57.95
2022-12-09T23:55:26.256Z,45.85
2022-12-09T23:58:52.554Z,47.60
